Tandou Lake Airport

YTAD · 澳大利亚

METAR YTAD · Tandou Lake Airport

5 三月 05:30 LT
20m
使用的METAR站距离机场414 km。
罗盘
风向 的 风向 050° Tandou Lake Airport 15/33
风: 5 kt, 2 beaufort

1 kt

5 kt
改变
0 ft 1.000 2.000 3.000 4.000 5.000
CAVOK
METAR YPAD 041830Z 05005KT CAVOK 16/08 Q1014

METAR Tandou Lake Airport - YTAD

该字段位于澳大利亚中。 该机场位于纬度-32,66645和经度142,06712。 该机场有一条跑道: 15/33. 本场的ICAO机场代码为YTAD。 机场在Melbourne FIR中。

该航空气象观测是针对阿德萊德機場在2024年3月5日 05:00, 当地时间进行的。

机场观察

风向为050°,速度为5 kt。

天气为CAVOK。这意味着在5.000 ft或MSA(最低安全高度)以下(以较高者为准)以下没有云。这也意味着没有观测到积雨云或高耸的积云,可见度为10 km 或者更多或更高。此外,不会有雾,降雨或其他重要天气。

温度和风寒是16 °C。 露点为8 °C,相对湿度为59%。 海平面上的气压为1014 hPa (QNH)。

白天

今天,太阳从07:23升起,在20:03降落。 这适用于Tandou Lake Airport,世界夏令时可能有所不同。 当地时间与世界标准时间之间的时差为+11 小时。 当前,没有夏令时有效。

公司介绍

我们没有关于这个机场的公司信息。

体会

到Vliegles.nl去找飞行课程,跳伞和其他飞行体验。 浏览页面,了解Tandou Lake Airport附近所有可用的活动。 你也可以使用搜索功能来寻找你所在地附近的特定飞行课程、跳伞或其他飞行体验。

跑道

Id 标题 侧风 逆风 侧风 %
15/33 156°-336° 5 kt 1 kt 96 %

逆风成分最大的方向会被突出显示,并用于横风计算。 这并不一定意味着这个方向在使用。

温度 & 天气

温度 16 °C
露点 8 °C
相对湿度 59%
Kp-index 0 (0-9)

白天

日出
07:35 (1:46)
中午
13:57
日落
20:19

小工具

你想在你的网站上有一个关于Tandou Lake Airport的当前航空天气(METAR)的小部件吗?

显示HTML代码
?>